sensor_id;sensor_type;location;lat;lon;timestamp;P1;durP1;ratioP1;P2;durP2;ratioP2
68449;SDS011;67758;39.572;2.652;2023-06-19T00:00:11;10.57;;;4.70;;
68449;SDS011;67758;39.572;2.652;2023-06-19T00:02:41;12.87;;;4.30;;
68449;SDS011;67758;39.572;2.652;2023-06-19T00:05:07;11.35;;;4.50;;
68449;SDS011;67758;39.572;2.652;2023-06-19T00:07:36;14.18;;;5.25;;
68449;SDS011;67758;39.572;2.652;2023-06-19T00:10:02;9.23;;;4.75;;
68449;SDS011;67758;39.572;2.652;2023-06-19T00:12:28;10.15;;;4.47;;
68449;SDS011;67758;39.572;2.652;2023-06-19T00:14:55;11.63;;;4.77;;
68449;SDS011;67758;39.572;2.652;2023-06-19T00:17:20;14.63;;;4.57;;
68449;SDS011;67758;39.572;2.652;2023-06-19T00:19:46;8.80;;;4.67;;
68449;SDS011;67758;39.572;2.652;2023-06-19T00:22:14;8.20;;;3.90;;
68449;SDS011;67758;39.572;2.652;2023-06-19T00:24:40;11.48;;;4.65;;
68449;SDS011;67758;39.572;2.652;2023-06-19T00:27:05;10.37;;;4.47;;
68449;SDS011;67758;39.572;2.652;2023-06-19T00:29:31;9.63;;;4.35;;
68449;SDS011;67758;39.572;2.652;2023-06-19T00:32:01;9.70;;;4.72;;
68449;SDS011;67758;39.572;2.652;2023-06-19T00:34:28;10.40;;;4.80;;
68449;SDS011;67758;39.572;2.652;2023-06-19T00:36:54;8.73;;;4.45;;
68449;SDS011;67758;39.572;2.652;2023-06-19T00:39:24;9.05;;;4.60;;
68449;SDS011;67758;39.572;2.652;2023-06-19T00:41:51;8.85;;;3.75;;
68449;SDS011;67758;39.572;2.652;2023-06-19T00:44:20;9.25;;;4.10;;
68449;SDS011;67758;39.572;2.652;2023-06-19T00:46:46;8.80;;;4.40;;
68449;SDS011;67758;39.572;2.652;2023-06-19T00:49:13;9.68;;;4.10;;
68449;SDS011;67758;39.572;2.652;2023-06-19T00:51:39;11.30;;;4.18;;
68449;SDS011;67758;39.572;2.652;2023-06-19T00:54:08;8.60;;;3.77;;
68449;SDS011;67758;39.572;2.652;2023-06-19T00:56:34;11.10;;;4.72;;
68449;SDS011;67758;39.572;2.652;2023-06-19T00:59:02;12.45;;;4.15;;
68449;SDS011;67758;39.572;2.652;2023-06-19T01:01:32;8.55;;;4.13;;
68449;SDS011;67758;39.572;2.652;2023-06-19T01:03:59;8.90;;;4.30;;
68449;SDS011;67758;39.572;2.652;2023-06-19T01:06:25;10.30;;;3.63;;
68449;SDS011;67758;39.572;2.652;2023-06-19T01:11:23;8.05;;;3.78;;
68449;SDS011;67758;39.572;2.652;2023-06-19T01:13:58;8.97;;;3.90;;
68449;SDS011;67758;39.572;2.652;2023-06-19T01:16:28;10.07;;;4.30;;
68449;SDS011;67758;39.572;2.652;2023-06-19T01:18:55;11.00;;;3.97;;
68449;SDS011;67758;39.572;2.652;2023-06-19T01:21:21;9.90;;;4.07;;
68449;SDS011;67758;39.572;2.652;2023-06-19T01:23:47;9.70;;;3.80;;
68449;SDS011;67758;39.572;2.652;2023-06-19T01:26:13;7.07;;;3.80;;
68449;SDS011;67758;39.572;2.652;2023-06-19T01:28:41;8.50;;;4.03;;
68449;SDS011;67758;39.572;2.652;2023-06-19T01:31:12;10.95;;;3.95;;
68449;SDS011;67758;39.572;2.652;2023-06-19T01:33:46;10.60;;;4.40;;
68449;SDS011;67758;39.572;2.652;2023-06-19T01:36:13;11.27;;;4.05;;
68449;SDS011;67758;39.572;2.652;2023-06-19T01:38:40;8.75;;;3.85;;
68449;SDS011;67758;39.572;2.652;2023-06-19T01:41:09;8.90;;;3.60;;
68449;SDS011;67758;39.572;2.652;2023-06-19T01:43:35;9.32;;;3.75;;
68449;SDS011;67758;39.572;2.652;2023-06-19T01:46:02;7.73;;;4.13;;
68449;SDS011;67758;39.572;2.652;2023-06-19T01:48:28;8.65;;;3.42;;
68449;SDS011;67758;39.572;2.652;2023-06-19T01:50:53;9.57;;;3.35;;
68449;SDS011;67758;39.572;2.652;2023-06-19T01:53:19;6.77;;;3.50;;
68449;SDS011;67758;39.572;2.652;2023-06-19T01:55:45;10.23;;;3.93;;
68449;SDS011;67758;39.572;2.652;2023-06-19T01:58:10;7.43;;;3.22;;
68449;SDS011;67758;39.572;2.652;2023-06-19T02:00:36;8.60;;;3.50;;
68449;SDS011;67758;39.572;2.652;2023-06-19T02:03:02;8.18;;;3.95;;
68449;SDS011;67758;39.572;2.652;2023-06-19T02:05:29;7.97;;;3.45;;
68449;SDS011;67758;39.572;2.652;2023-06-19T02:07:55;11.02;;;3.60;;
68449;SDS011;67758;39.572;2.652;2023-06-19T02:10:21;8.27;;;3.97;;
68449;SDS011;67758;39.572;2.652;2023-06-19T02:12:46;11.27;;;3.67;;
68449;SDS011;67758;39.572;2.652;2023-06-19T02:15:12;12.93;;;3.77;;
68449;SDS011;67758;39.572;2.652;2023-06-19T02:17:37;7.00;;;3.33;;
68449;SDS011;67758;39.572;2.652;2023-06-19T02:20:04;9.52;;;3.78;;
68449;SDS011;67758;39.572;2.652;2023-06-19T02:22:34;9.70;;;3.95;;
68449;SDS011;67758;39.572;2.652;2023-06-19T02:24:59;8.93;;;4.20;;
68449;SDS011;67758;39.572;2.652;2023-06-19T02:27:25;9.67;;;4.10;;
68449;SDS011;67758;39.572;2.652;2023-06-19T02:29:51;9.38;;;4.47;;
68449;SDS011;67758;39.572;2.652;2023-06-19T02:32:16;12.70;;;4.77;;
68449;SDS011;67758;39.572;2.652;2023-06-19T02:34:42;12.02;;;4.30;;
68449;SDS011;67758;39.572;2.652;2023-06-19T02:37:08;12.83;;;4.47;;
68449;SDS011;67758;39.572;2.652;2023-06-19T02:39:33;10.03;;;4.23;;
68449;SDS011;67758;39.572;2.652;2023-06-19T02:41:59;9.48;;;4.28;;
68449;SDS011;67758;39.572;2.652;2023-06-19T02:44:25;12.37;;;4.57;;
68449;SDS011;67758;39.572;2.652;2023-06-19T02:46:50;13.17;;;5.07;;
68449;SDS011;67758;39.572;2.652;2023-06-19T02:49:16;11.27;;;4.80;;
68449;SDS011;67758;39.572;2.652;2023-06-19T02:51:42;14.13;;;5.05;;
68449;SDS011;67758;39.572;2.652;2023-06-19T02:54:07;11.03;;;5.13;;
68449;SDS011;67758;39.572;2.652;2023-06-19T02:56:33;15.52;;;5.63;;
68449;SDS011;67758;39.572;2.652;2023-06-19T02:58:58;13.17;;;5.23;;
68449;SDS011;67758;39.572;2.652;2023-06-19T03:01:24;13.27;;;5.13;;
68449;SDS011;67758;39.572;2.652;2023-06-19T03:03:50;11.68;;;5.47;;
68449;SDS011;67758;39.572;2.652;2023-06-19T03:06:17;14.27;;;5.63;;
68449;SDS011;67758;39.572;2.652;2023-06-19T03:08:43;15.63;;;5.47;;
68449;SDS011;67758;39.572;2.652;2023-06-19T03:11:08;12.32;;;5.30;;
68449;SDS011;67758;39.572;2.652;2023-06-19T03:13:44;15.47;;;5.43;;
68449;SDS011;67758;39.572;2.652;2023-06-19T03:16:12;17.52;;;6.03;;
68449;SDS011;67758;39.572;2.652;2023-06-19T03:18:39;13.27;;;5.63;;
68449;SDS011;67758;39.572;2.652;2023-06-19T03:21:06;20.30;;;6.33;;
68449;SDS011;67758;39.572;2.652;2023-06-19T03:23:32;14.63;;;5.70;;
68449;SDS011;67758;39.572;2.652;2023-06-19T03:25:58;15.40;;;6.22;;
68449;SDS011;67758;39.572;2.652;2023-06-19T03:28:24;18.37;;;6.70;;
68449;SDS011;67758;39.572;2.652;2023-06-19T03:30:51;19.80;;;7.00;;
68449;SDS011;67758;39.572;2.652;2023-06-19T03:33:20;21.15;;;6.63;;
68449;SDS011;67758;39.572;2.652;2023-06-19T03:35:46;17.67;;;7.20;;
68449;SDS011;67758;39.572;2.652;2023-06-19T03:38:12;17.40;;;6.63;;
68449;SDS011;67758;39.572;2.652;2023-06-19T03:40:39;16.52;;;7.35;;
68449;SDS011;67758;39.572;2.652;2023-06-19T03:43:07;19.75;;;6.95;;
68449;SDS011;67758;39.572;2.652;2023-06-19T03:45:33;18.70;;;6.97;;
68449;SDS011;67758;39.572;2.652;2023-06-19T03:48:00;22.30;;;7.65;;
68449;SDS011;67758;39.572;2.652;2023-06-19T03:50:29;19.95;;;7.10;;
68449;SDS011;67758;39.572;2.652;2023-06-19T03:52:55;17.05;;;6.65;;
68449;SDS011;67758;39.572;2.652;2023-06-19T03:55:21;15.00;;;6.83;;
68449;SDS011;67758;39.572;2.652;2023-06-19T03:57:47;17.27;;;6.85;;
68449;SDS011;67758;39.572;2.652;2023-06-19T04:00:13;16.57;;;6.70;;
68449;SDS011;67758;39.572;2.652;2023-06-19T04:02:40;19.52;;;6.82;;
68449;SDS011;67758;39.572;2.652;2023-06-19T04:05:06;21.60;;;7.05;;
68449;SDS011;67758;39.572;2.652;2023-06-19T04:07:32;20.77;;;6.80;;
68449;SDS011;67758;39.572;2.652;2023-06-19T04:09:58;20.23;;;6.73;;
68449;SDS011;67758;39.572;2.652;2023-06-19T04:12:24;19.70;;;6.82;;
68449;SDS011;67758;39.572;2.652;2023-06-19T04:14:49;22.63;;;8.00;;
68449;SDS011;67758;39.572;2.652;2023-06-19T04:17:15;18.05;;;7.65;;
68449;SDS011;67758;39.572;2.652;2023-06-19T04:19:43;20.15;;;7.32;;
68449;SDS011;67758;39.572;2.652;2023-06-19T04:22:08;19.73;;;6.93;;
68449;SDS011;67758;39.572;2.652;2023-06-19T04:24:36;23.02;;;6.90;;
68449;SDS011;67758;39.572;2.652;2023-06-19T04:27:01;22.55;;;7.25;;
68449;SDS011;67758;39.572;2.652;2023-06-19T04:29:27;22.90;;;7.20;;
68449;SDS011;67758;39.572;2.652;2023-06-19T04:31:57;22.88;;;7.05;;
68449;SDS011;67758;39.572;2.652;2023-06-19T04:34:23;21.20;;;7.65;;
68449;SDS011;67758;39.572;2.652;2023-06-19T04:36:49;27.33;;;7.33;;
68449;SDS011;67758;39.572;2.652;2023-06-19T04:39:15;21.38;;;7.22;;
68449;SDS011;67758;39.572;2.652;2023-06-19T04:41:42;24.33;;;7.20;;
68449;SDS011;67758;39.572;2.652;2023-06-19T04:44:09;19.90;;;7.07;;
68449;SDS011;67758;39.572;2.652;2023-06-19T04:46:37;16.75;;;6.53;;
68449;SDS011;67758;39.572;2.652;2023-06-19T04:49:03;17.20;;;7.35;;
68449;SDS011;67758;39.572;2.652;2023-06-19T04:51:32;18.80;;;6.90;;
68449;SDS011;67758;39.572;2.652;2023-06-19T04:53:59;17.75;;;6.70;;
68449;SDS011;67758;39.572;2.652;2023-06-19T04:56:25;27.38;;;7.78;;
68449;SDS011;67758;39.572;2.652;2023-06-19T04:58:50;24.47;;;6.90;;
68449;SDS011;67758;39.572;2.652;2023-06-19T05:01:16;20.73;;;6.70;;
68449;SDS011;67758;39.572;2.652;2023-06-19T05:03:43;21.75;;;7.10;;
68449;SDS011;67758;39.572;2.652;2023-06-19T05:06:12;20.40;;;6.63;;
68449;SDS011;67758;39.572;2.652;2023-06-19T05:08:38;17.58;;;7.40;;
68449;SDS011;67758;39.572;2.652;2023-06-19T05:11:04;24.50;;;7.57;;
68449;SDS011;67758;39.572;2.652;2023-06-19T05:13:29;22.45;;;7.07;;
68449;SDS011;67758;39.572;2.652;2023-06-19T05:15:55;19.33;;;6.80;;
68449;SDS011;67758;39.572;2.652;2023-06-19T05:18:23;19.08;;;6.53;;
68449;SDS011;67758;39.572;2.652;2023-06-19T05:20:49;19.67;;;6.30;;
68449;SDS011;67758;39.572;2.652;2023-06-19T05:23:15;21.10;;;7.13;;
68449;SDS011;67758;39.572;2.652;2023-06-19T05:25:40;17.85;;;6.38;;
68449;SDS011;67758;39.572;2.652;2023-06-19T05:28:08;20.80;;;6.73;;
68449;SDS011;67758;39.572;2.652;2023-06-19T05:30:33;18.42;;;6.18;;
68449;SDS011;67758;39.572;2.652;2023-06-19T05:33:00;22.20;;;6.22;;
68449;SDS011;67758;39.572;2.652;2023-06-19T05:35:25;30.33;;;7.50;;
68449;SDS011;67758;39.572;2.652;2023-06-19T05:37:51;19.17;;;6.47;;
68449;SDS011;67758;39.572;2.652;2023-06-19T05:40:17;18.50;;;6.77;;
68449;SDS011;67758;39.572;2.652;2023-06-19T05:42:43;21.02;;;7.55;;
68449;SDS011;67758;39.572;2.652;2023-06-19T05:45:08;16.30;;;5.63;;
68449;SDS011;67758;39.572;2.652;2023-06-19T05:47:34;18.23;;;6.25;;
68449;SDS011;67758;39.572;2.652;2023-06-19T05:50:00;19.27;;;6.37;;
68449;SDS011;67758;39.572;2.652;2023-06-19T05:52:26;25.20;;;7.63;;
68449;SDS011;67758;39.572;2.652;2023-06-19T05:54:51;26.40;;;6.70;;
68449;SDS011;67758;39.572;2.652;2023-06-19T05:57:20;19.95;;;7.47;;
68449;SDS011;67758;39.572;2.652;2023-06-19T05:59:49;22.02;;;6.80;;
68449;SDS011;67758;39.572;2.652;2023-06-19T06:02:15;19.23;;;6.50;;
68449;SDS011;67758;39.572;2.652;2023-06-19T06:04:41;22.17;;;6.03;;
68449;SDS011;67758;39.572;2.652;2023-06-19T06:07:07;22.23;;;6.80;;
68449;SDS011;67758;39.572;2.652;2023-06-19T06:09:33;24.88;;;6.55;;
68449;SDS011;67758;39.572;2.652;2023-06-19T06:11:59;22.95;;;6.78;;
68449;SDS011;67758;39.572;2.652;2023-06-19T06:14:25;22.97;;;7.37;;
68449;SDS011;67758;39.572;2.652;2023-06-19T06:16:51;22.83;;;6.70;;
68449;SDS011;67758;39.572;2.652;2023-06-19T06:19:20;25.23;;;6.50;;
68449;SDS011;67758;39.572;2.652;2023-06-19T06:21:49;21.97;;;6.47;;
68449;SDS011;67758;39.572;2.652;2023-06-19T06:24:15;17.60;;;5.97;;
68449;SDS011;67758;39.572;2.652;2023-06-19T06:26:41;24.15;;;6.80;;
68449;SDS011;67758;39.572;2.652;2023-06-19T06:29:07;26.75;;;7.25;;
68449;SDS011;67758;39.572;2.652;2023-06-19T06:31:33;20.63;;;6.93;;
68449;SDS011;67758;39.572;2.652;2023-06-19T06:34:00;18.37;;;6.03;;
68449;SDS011;67758;39.572;2.652;2023-06-19T06:36:25;19.98;;;5.55;;
68449;SDS011;67758;39.572;2.652;2023-06-19T06:38:51;20.57;;;6.07;;
68449;SDS011;67758;39.572;2.652;2023-06-19T06:41:17;18.20;;;5.63;;
68449;SDS011;67758;39.572;2.652;2023-06-19T06:43:42;23.23;;;6.17;;
68449;SDS011;67758;39.572;2.652;2023-06-19T06:46:08;19.40;;;6.55;;
68449;SDS011;67758;39.572;2.652;2023-06-19T06:48:35;16.73;;;5.95;;
68449;SDS011;67758;39.572;2.652;2023-06-19T06:51:01;23.05;;;7.00;;
68449;SDS011;67758;39.572;2.652;2023-06-19T06:53:27;16.80;;;5.43;;
68449;SDS011;67758;39.572;2.652;2023-06-19T06:55:54;19.65;;;6.13;;
68449;SDS011;67758;39.572;2.652;2023-06-19T06:58:23;22.13;;;6.10;;
68449;SDS011;67758;39.572;2.652;2023-06-19T07:00:48;16.70;;;5.87;;
68449;SDS011;67758;39.572;2.652;2023-06-19T07:03:16;20.20;;;6.68;;
68449;SDS011;67758;39.572;2.652;2023-06-19T07:05:45;25.45;;;6.35;;
68449;SDS011;67758;39.572;2.652;2023-06-19T07:08:12;18.10;;;6.35;;
68449;SDS011;67758;39.572;2.652;2023-06-19T07:10:38;21.63;;;5.93;;
68449;SDS011;67758;39.572;2.652;2023-06-19T07:13:03;15.85;;;5.10;;
68449;SDS011;67758;39.572;2.652;2023-06-19T07:15:29;15.67;;;6.20;;
68449;SDS011;67758;39.572;2.652;2023-06-19T07:17:55;21.02;;;6.85;;
68449;SDS011;67758;39.572;2.652;2023-06-19T07:20:21;19.52;;;6.18;;
68449;SDS011;67758;39.572;2.652;2023-06-19T07:22:47;22.75;;;6.15;;
68449;SDS011;67758;39.572;2.652;2023-06-19T07:25:16;23.35;;;6.40;;
68449;SDS011;67758;39.572;2.652;2023-06-19T07:27:43;17.75;;;5.78;;
68449;SDS011;67758;39.572;2.652;2023-06-19T07:30:08;21.73;;;6.13;;
68449;SDS011;67758;39.572;2.652;2023-06-19T07:32:43;16.92;;;6.03;;
68449;SDS011;67758;39.572;2.652;2023-06-19T07:35:10;26.98;;;6.22;;
68449;SDS011;67758;39.572;2.652;2023-06-19T07:37:36;21.27;;;6.38;;
68449;SDS011;67758;39.572;2.652;2023-06-19T07:40:03;20.65;;;5.88;;
68449;SDS011;67758;39.572;2.652;2023-06-19T07:42:30;17.73;;;5.37;;
68449;SDS011;67758;39.572;2.652;2023-06-19T07:45:01;18.25;;;5.95;;
68449;SDS011;67758;39.572;2.652;2023-06-19T07:47:29;23.08;;;6.78;;
68449;SDS011;67758;39.572;2.652;2023-06-19T07:49:56;21.77;;;6.60;;
68449;SDS011;67758;39.572;2.652;2023-06-19T07:52:21;22.70;;;5.90;;
68449;SDS011;67758;39.572;2.652;2023-06-19T07:54:52;18.20;;;6.18;;
68449;SDS011;67758;39.572;2.652;2023-06-19T07:57:23;17.95;;;6.13;;
68449;SDS011;67758;39.572;2.652;2023-06-19T08:00:00;13.95;;;5.65;;
68449;SDS011;67758;39.572;2.652;2023-06-19T08:02:25;15.40;;;5.77;;
68449;SDS011;67758;39.572;2.652;2023-06-19T08:05:01;15.57;;;6.10;;
68449;SDS011;67758;39.572;2.652;2023-06-19T08:07:37;16.48;;;6.22;;
68449;SDS011;67758;39.572;2.652;2023-06-19T08:10:06;20.00;;;6.40;;
68449;SDS011;67758;39.572;2.652;2023-06-19T08:12:32;17.60;;;6.55;;
68449;SDS011;67758;39.572;2.652;2023-06-19T08:14:58;15.97;;;5.57;;
68449;SDS011;67758;39.572;2.652;2023-06-19T08:17:24;20.10;;;5.57;;
68449;SDS011;67758;39.572;2.652;2023-06-19T08:19:50;16.93;;;5.93;;
68449;SDS011;67758;39.572;2.652;2023-06-19T08:22:15;18.80;;;5.45;;
68449;SDS011;67758;39.572;2.652;2023-06-19T08:24:46;12.77;;;5.38;;
68449;SDS011;67758;39.572;2.652;2023-06-19T08:27:12;18.47;;;7.17;;
68449;SDS011;67758;39.572;2.652;2023-06-19T08:29:38;17.08;;;6.78;;
68449;SDS011;67758;39.572;2.652;2023-06-19T08:32:03;15.63;;;5.40;;
68449;SDS011;67758;39.572;2.652;2023-06-19T08:34:30;18.55;;;6.25;;
68449;SDS011;67758;39.572;2.652;2023-06-19T08:36:59;16.27;;;6.47;;
68449;SDS011;67758;39.572;2.652;2023-06-19T08:39:25;13.98;;;5.45;;
68449;SDS011;67758;39.572;2.652;2023-06-19T08:41:53;17.13;;;5.82;;
68449;SDS011;67758;39.572;2.652;2023-06-19T08:44:21;18.48;;;5.88;;
68449;SDS011;67758;39.572;2.652;2023-06-19T08:46:47;19.47;;;5.77;;
68449;SDS011;67758;39.572;2.652;2023-06-19T08:49:13;14.68;;;5.47;;
68449;SDS011;67758;39.572;2.652;2023-06-19T08:51:41;20.50;;;6.00;;
68449;SDS011;67758;39.572;2.652;2023-06-19T08:54:08;20.77;;;6.38;;
68449;SDS011;67758;39.572;2.652;2023-06-19T08:56:46;18.80;;;5.80;;
68449;SDS011;67758;39.572;2.652;2023-06-19T08:59:16;19.50;;;6.50;;
68449;SDS011;67758;39.572;2.652;2023-06-19T09:01:49;17.33;;;6.18;;
68449;SDS011;67758;39.572;2.652;2023-06-19T09:04:25;19.45;;;6.20;;
68449;SDS011;67758;39.572;2.652;2023-06-19T09:09:24;22.60;;;5.20;;
68449;SDS011;67758;39.572;2.652;2023-06-19T09:14:24;21.95;;;7.93;;
68449;SDS011;67758;39.572;2.652;2023-06-19T09:16:57;18.98;;;6.13;;
68449;SDS011;67758;39.572;2.652;2023-06-19T09:19:25;17.02;;;6.35;;
68449;SDS011;67758;39.572;2.652;2023-06-19T09:21:51;21.13;;;6.63;;
68449;SDS011;67758;39.572;2.652;2023-06-19T09:24:17;15.55;;;5.45;;
68449;SDS011;67758;39.572;2.652;2023-06-19T09:26:43;21.17;;;6.35;;
68449;SDS011;67758;39.572;2.652;2023-06-19T09:29:09;21.50;;;6.55;;
68449;SDS011;67758;39.572;2.652;2023-06-19T09:32:17;23.90;;;5.70;;
68449;SDS011;67758;39.572;2.652;2023-06-19T09:34:43;17.45;;;5.93;;
68449;SDS011;67758;39.572;2.652;2023-06-19T09:37:12;27.95;;;7.28;;
68449;SDS011;67758;39.572;2.652;2023-06-19T09:40:02;22.80;;;6.97;;
68449;SDS011;67758;39.572;2.652;2023-06-19T09:42:39;17.83;;;6.30;;
68449;SDS011;67758;39.572;2.652;2023-06-19T09:45:24;20.23;;;7.17;;
68449;SDS011;67758;39.572;2.652;2023-06-19T09:47:56;22.67;;;6.30;;
68449;SDS011;67758;39.572;2.652;2023-06-19T09:50:23;20.13;;;6.50;;
68449;SDS011;67758;39.572;2.652;2023-06-19T09:53:02;16.50;;;6.28;;
68449;SDS011;67758;39.572;2.652;2023-06-19T09:55:29;32.17;;;8.30;;
68449;SDS011;67758;39.572;2.652;2023-06-19T09:57:58;24.35;;;8.18;;
68449;SDS011;67758;39.572;2.652;2023-06-19T10:00:27;20.38;;;7.32;;
68449;SDS011;67758;39.572;2.652;2023-06-19T10:02:56;25.55;;;7.57;;
68449;SDS011;67758;39.572;2.652;2023-06-19T10:05:30;19.80;;;6.95;;
68449;SDS011;67758;39.572;2.652;2023-06-19T10:08:07;17.97;;;6.33;;
68449;SDS011;67758;39.572;2.652;2023-06-19T10:10:33;23.23;;;6.75;;
68449;SDS011;67758;39.572;2.652;2023-06-19T10:13:11;22.63;;;8.07;;
68449;SDS011;67758;39.572;2.652;2023-06-19T10:15:42;21.55;;;7.15;;
68449;SDS011;67758;39.572;2.652;2023-06-19T10:18:16;21.58;;;7.90;;
68449;SDS011;67758;39.572;2.652;2023-06-19T10:20:43;20.73;;;8.03;;
68449;SDS011;67758;39.572;2.652;2023-06-19T10:23:11;21.98;;;7.82;;
68449;SDS011;67758;39.572;2.652;2023-06-19T10:25:44;23.20;;;7.47;;
68449;SDS011;67758;39.572;2.652;2023-06-19T10:28:25;18.55;;;7.45;;
68449;SDS011;67758;39.572;2.652;2023-06-19T10:31:03;20.27;;;8.57;;
68449;SDS011;67758;39.572;2.652;2023-06-19T10:33:32;24.47;;;10.03;;
68449;SDS011;67758;39.572;2.652;2023-06-19T10:36:21;17.83;;;8.82;;
68449;SDS011;67758;39.572;2.652;2023-06-19T10:38:53;24.77;;;9.30;;
68449;SDS011;67758;39.572;2.652;2023-06-19T10:41:22;18.52;;;9.30;;
68449;SDS011;67758;39.572;2.652;2023-06-19T10:44:03;24.25;;;9.43;;
68449;SDS011;67758;39.572;2.652;2023-06-19T10:46:31;20.97;;;9.37;;
68449;SDS011;67758;39.572;2.652;2023-06-19T10:48:58;20.58;;;9.02;;
68449;SDS011;67758;39.572;2.652;2023-06-19T10:51:26;18.98;;;9.07;;
68449;SDS011;67758;39.572;2.652;2023-06-19T10:53:55;24.55;;;10.45;;
68449;SDS011;67758;39.572;2.652;2023-06-19T10:56:22;24.55;;;11.32;;
68449;SDS011;67758;39.572;2.652;2023-06-19T10:58:56;21.63;;;9.83;;
68449;SDS011;67758;39.572;2.652;2023-06-19T11:01:30;24.95;;;9.70;;
68449;SDS011;67758;39.572;2.652;2023-06-19T11:03:57;24.23;;;11.93;;
68449;SDS011;67758;39.572;2.652;2023-06-19T11:06:24;30.15;;;9.95;;
68449;SDS011;67758;39.572;2.652;2023-06-19T11:08:52;26.13;;;9.70;;
68449;SDS011;67758;39.572;2.652;2023-06-19T11:11:18;21.92;;;8.82;;
68449;SDS011;67758;39.572;2.652;2023-06-19T11:13:45;20.15;;;9.98;;
68449;SDS011;67758;39.572;2.652;2023-06-19T11:16:11;23.63;;;10.93;;
68449;SDS011;67758;39.572;2.652;2023-06-19T11:18:42;22.55;;;10.60;;
68449;SDS011;67758;39.572;2.652;2023-06-19T11:21:08;25.38;;;10.63;;
68449;SDS011;67758;39.572;2.652;2023-06-19T11:23:37;24.40;;;10.57;;
68449;SDS011;67758;39.572;2.652;2023-06-19T11:26:03;22.40;;;9.73;;
68449;SDS011;67758;39.572;2.652;2023-06-19T11:28:30;23.27;;;10.05;;
68449;SDS011;67758;39.572;2.652;2023-06-19T11:30:57;22.88;;;11.27;;
68449;SDS011;67758;39.572;2.652;2023-06-19T11:33:28;22.70;;;9.60;;
68449;SDS011;67758;39.572;2.652;2023-06-19T11:35:55;28.83;;;10.40;;
68449;SDS011;67758;39.572;2.652;2023-06-19T11:38:25;22.00;;;8.68;;
68449;SDS011;67758;39.572;2.652;2023-06-19T11:41:03;21.10;;;8.85;;
68449;SDS011;67758;39.572;2.652;2023-06-19T11:43:32;24.48;;;9.98;;
68449;SDS011;67758;39.572;2.652;2023-06-19T11:46:05;29.33;;;9.40;;
68449;SDS011;67758;39.572;2.652;2023-06-19T11:48:36;25.92;;;9.38;;
68449;SDS011;67758;39.572;2.652;2023-06-19T11:51:02;28.77;;;9.98;;
68449;SDS011;67758;39.572;2.652;2023-06-19T11:53:28;31.42;;;10.10;;
68449;SDS011;67758;39.572;2.652;2023-06-19T11:55:55;23.40;;;8.80;;
68449;SDS011;67758;39.572;2.652;2023-06-19T11:58:28;25.63;;;9.77;;
68449;SDS011;67758;39.572;2.652;2023-06-19T12:01:16;25.17;;;9.30;;
68449;SDS011;67758;39.572;2.652;2023-06-19T12:03:47;31.65;;;10.40;;
68449;SDS011;67758;39.572;2.652;2023-06-19T12:06:13;22.42;;;8.38;;
68449;SDS011;67758;39.572;2.652;2023-06-19T12:08:39;22.03;;;8.40;;
68449;SDS011;67758;39.572;2.652;2023-06-19T12:11:05;27.02;;;8.20;;
68449;SDS011;67758;39.572;2.652;2023-06-19T12:13:35;24.83;;;8.15;;
68449;SDS011;67758;39.572;2.652;2023-06-19T12:16:01;21.85;;;8.43;;
68449;SDS011;67758;39.572;2.652;2023-06-19T12:18:29;38.03;;;9.40;;
68449;SDS011;67758;39.572;2.652;2023-06-19T12:20:57;33.75;;;8.52;;
68449;SDS011;67758;39.572;2.652;2023-06-19T12:23:23;27.33;;;8.25;;
68449;SDS011;67758;39.572;2.652;2023-06-19T12:25:51;25.00;;;9.63;;
68449;SDS011;67758;39.572;2.652;2023-06-19T12:28:17;24.30;;;8.55;;
68449;SDS011;67758;39.572;2.652;2023-06-19T12:30:44;34.65;;;9.07;;
68449;SDS011;67758;39.572;2.652;2023-06-19T12:33:10;28.40;;;8.23;;
68449;SDS011;67758;39.572;2.652;2023-06-19T12:35:40;29.40;;;9.20;;
68449;SDS011;67758;39.572;2.652;2023-06-19T12:38:06;25.38;;;7.97;;
68449;SDS011;67758;39.572;2.652;2023-06-19T12:40:33;26.65;;;7.88;;
68449;SDS011;67758;39.572;2.652;2023-06-19T12:42:59;25.95;;;8.15;;
68449;SDS011;67758;39.572;2.652;2023-06-19T12:45:24;27.30;;;7.93;;
68449;SDS011;67758;39.572;2.652;2023-06-19T12:47:50;24.80;;;7.57;;
68449;SDS011;67758;39.572;2.652;2023-06-19T12:50:16;26.15;;;8.15;;
68449;SDS011;67758;39.572;2.652;2023-06-19T12:52:41;48.97;;;17.70;;
68449;SDS011;67758;39.572;2.652;2023-06-19T12:55:07;26.40;;;8.07;;
68449;SDS011;67758;39.572;2.652;2023-06-19T12:57:33;29.05;;;8.40;;
68449;SDS011;67758;39.572;2.652;2023-06-19T12:59:59;24.50;;;8.00;;
68449;SDS011;67758;39.572;2.652;2023-06-19T13:02:27;22.63;;;6.93;;
68449;SDS011;67758;39.572;2.652;2023-06-19T13:04:53;24.45;;;8.00;;
68449;SDS011;67758;39.572;2.652;2023-06-19T13:07:18;23.27;;;7.53;;
68449;SDS011;67758;39.572;2.652;2023-06-19T13:09:47;30.77;;;8.65;;
68449;SDS011;67758;39.572;2.652;2023-06-19T13:12:12;27.70;;;8.50;;
68449;SDS011;67758;39.572;2.652;2023-06-19T13:14:38;27.50;;;8.32;;
68449;SDS011;67758;39.572;2.652;2023-06-19T13:17:04;21.23;;;8.33;;
68449;SDS011;67758;39.572;2.652;2023-06-19T13:19:29;24.88;;;9.18;;
68449;SDS011;67758;39.572;2.652;2023-06-19T13:21:59;41.23;;;9.37;;
68449;SDS011;67758;39.572;2.652;2023-06-19T13:24:27;30.52;;;9.55;;
68449;SDS011;67758;39.572;2.652;2023-06-19T13:26:53;51.75;;;11.68;;
68449;SDS011;67758;39.572;2.652;2023-06-19T13:29:20;127.33;;;20.40;;
68449;SDS011;67758;39.572;2.652;2023-06-19T13:31:46;33.20;;;9.27;;
68449;SDS011;67758;39.572;2.652;2023-06-19T13:34:13;50.97;;;12.50;;
68449;SDS011;67758;39.572;2.652;2023-06-19T13:36:39;70.93;;;13.17;;
68449;SDS011;67758;39.572;2.652;2023-06-19T13:39:07;29.40;;;8.88;;
68449;SDS011;67758;39.572;2.652;2023-06-19T13:41:33;31.35;;;8.95;;
68449;SDS011;67758;39.572;2.652;2023-06-19T13:44:00;34.72;;;9.15;;
68449;SDS011;67758;39.572;2.652;2023-06-19T13:46:26;32.72;;;10.10;;
68449;SDS011;67758;39.572;2.652;2023-06-19T13:48:54;25.10;;;8.47;;
68449;SDS011;67758;39.572;2.652;2023-06-19T13:51:22;28.10;;;8.48;;
68449;SDS011;67758;39.572;2.652;2023-06-19T13:53:49;35.70;;;10.63;;
68449;SDS011;67758;39.572;2.652;2023-06-19T13:56:18;28.88;;;9.32;;
68449;SDS011;67758;39.572;2.652;2023-06-19T13:58:44;26.07;;;7.70;;
68449;SDS011;67758;39.572;2.652;2023-06-19T14:01:11;23.40;;;8.77;;
68449;SDS011;67758;39.572;2.652;2023-06-19T14:03:37;26.52;;;8.50;;
68449;SDS011;67758;39.572;2.652;2023-06-19T14:06:04;26.65;;;7.30;;
68449;SDS011;67758;39.572;2.652;2023-06-19T14:08:31;30.88;;;8.27;;
68449;SDS011;67758;39.572;2.652;2023-06-19T14:10:58;22.25;;;7.95;;
68449;SDS011;67758;39.572;2.652;2023-06-19T14:13:24;22.08;;;7.80;;
68449;SDS011;67758;39.572;2.652;2023-06-19T14:15:49;29.73;;;7.97;;
68449;SDS011;67758;39.572;2.652;2023-06-19T14:18:16;26.85;;;9.27;;
68449;SDS011;67758;39.572;2.652;2023-06-19T14:20:42;23.80;;;8.73;;
68449;SDS011;67758;39.572;2.652;2023-06-19T14:23:08;32.05;;;9.77;;
68449;SDS011;67758;39.572;2.652;2023-06-19T14:25:34;23.77;;;8.45;;
68449;SDS011;67758;39.572;2.652;2023-06-19T14:28:00;25.07;;;8.60;;
68449;SDS011;67758;39.572;2.652;2023-06-19T14:30:26;25.80;;;9.32;;
68449;SDS011;67758;39.572;2.652;2023-06-19T14:32:51;26.40;;;9.57;;
68449;SDS011;67758;39.572;2.652;2023-06-19T14:35:17;28.03;;;8.80;;
68449;SDS011;67758;39.572;2.652;2023-06-19T14:37:43;20.50;;;9.00;;
68449;SDS011;67758;39.572;2.652;2023-06-19T14:40:12;27.10;;;9.47;;
68449;SDS011;67758;39.572;2.652;2023-06-19T14:42:37;28.00;;;9.10;;
68449;SDS011;67758;39.572;2.652;2023-06-19T14:45:03;25.00;;;8.67;;